createdAt,value
2022-11-17T00:00:48.619Z,100030.97
2022-11-17T00:03:19.629Z,100018.44
2022-11-17T00:05:47.498Z,100023.56
2022-11-17T00:08:15.305Z,100022.13
2022-11-17T00:10:43.108Z,100024.00
2022-11-17T00:13:30.009Z,100017.31
2022-11-17T00:15:57.910Z,100015.47
2022-11-17T00:18:43.255Z,100015.13
2022-11-17T00:21:21.690Z,100006.94
2022-11-17T00:23:50.210Z,100013.75
2022-11-17T00:26:19.366Z,100010.81
2022-11-17T00:28:48.645Z,100003.88
2022-11-17T00:31:34.135Z,100017.88
2022-11-17T00:34:07.786Z,100015.13
2022-11-17T00:36:38.964Z,100005.06
2022-11-17T00:39:07.507Z,100001.31
2022-11-17T00:41:35.602Z,100000.44
2022-11-17T00:44:05.647Z,99996.28
2022-11-17T00:46:33.773Z,99995.41
2022-11-17T00:49:01.700Z,99994.50
2022-11-17T00:51:29.673Z,99991.97
2022-11-17T00:53:57.891Z,100000.69
2022-11-17T00:56:26.536Z,100001.31
2022-11-17T00:58:54.670Z,99995.94
2022-11-17T01:01:24.539Z,99989.06
2022-11-17T01:04:02.635Z,100001.41
2022-11-17T01:06:32.738Z,99999.56
2022-11-17T01:09:01.061Z,99997.69
2022-11-17T01:11:29.066Z,99988.41
2022-11-17T01:13:59.071Z,99991.53
2022-11-17T01:16:29.179Z,99991.31
2022-11-17T01:18:57.136Z,99989.34
2022-11-17T01:21:27.453Z,99993.72
2022-11-17T01:23:57.150Z,99991.19
2022-11-17T01:26:27.210Z,99982.81
2022-11-17T01:28:55.145Z,99979.03
2022-11-17T01:31:24.502Z,99976.00
2022-11-17T01:33:53.849Z,99970.91
2022-11-17T01:36:23.972Z,99982.03
2022-11-17T01:38:51.976Z,99977.28
2022-11-17T01:41:22.194Z,99971.34
2022-11-17T01:43:52.214Z,99972.44
2022-11-17T01:46:30.012Z,99963.00
2022-11-17T01:49:04.771Z,99966.41
2022-11-17T01:51:33.926Z,99961.69
2022-11-17T01:54:02.216Z,99953.47
2022-11-17T01:56:34.532Z,99958.88
2022-11-17T01:59:06.960Z,99960.31
2022-11-17T02:01:34.918Z,99963.44
2022-11-17T02:04:06.505Z,99958.81
2022-11-17T02:06:36.590Z,99961.59
2022-11-17T02:09:05.081Z,99969.69
2022-11-17T02:11:36.047Z,99969.09
2022-11-17T02:14:05.232Z,99961.41
2022-11-17T02:16:33.095Z,99956.38
2022-11-17T02:19:01.018Z,99963.97
2022-11-17T02:21:45.769Z,99968.97
2022-11-17T02:24:53.614Z,99967.22
2022-11-17T02:27:54.757Z,99957.50
2022-11-17T02:30:23.832Z,99970.31
2022-11-17T02:33:03.177Z,99959.19
2022-11-17T02:35:37.840Z,99953.06
2022-11-17T02:38:12.098Z,99951.31
2022-11-17T02:40:43.777Z,99946.00
2022-11-17T02:43:33.204Z,99939.78
2022-11-17T02:46:05.138Z,99938.56
2022-11-17T02:48:36.561Z,99936.25
2022-11-17T02:51:05.337Z,99933.59
2022-11-17T02:53:34.352Z,99937.41
2022-11-17T02:56:02.914Z,99929.06
2022-11-17T02:58:32.347Z,99934.59
2022-11-17T03:01:34.511Z,99924.03
2022-11-17T03:04:20.684Z,99922.41
2022-11-17T03:06:52.941Z,99927.25
2022-11-17T03:09:28.120Z,99925.09
2022-11-17T03:12:02.446Z,99924.91
2022-11-17T03:14:37.755Z,99921.25
2022-11-17T03:17:08.397Z,99919.47
2022-11-17T03:19:41.214Z,99919.56
2022-11-17T03:22:13.860Z,99914.16
2022-11-17T03:24:44.087Z,99899.91
2022-11-17T03:27:15.567Z,99908.38
2022-11-17T03:29:48.439Z,99920.72
2022-11-17T03:32:16.725Z,99918.56
2022-11-17T03:34:47.427Z,99923.63
2022-11-17T03:37:17.046Z,99923.25
2022-11-17T03:39:48.956Z,99927.88
2022-11-17T03:42:20.406Z,99922.69
2022-11-17T03:44:52.320Z,99913.63
2022-11-17T03:47:21.308Z,99913.41
2022-11-17T03:49:52.952Z,99917.00
2022-11-17T03:52:21.412Z,99912.13
2022-11-17T03:54:49.479Z,99909.38
2022-11-17T03:57:21.275Z,99907.91
2022-11-17T03:59:56.835Z,99903.19
2022-11-17T04:02:25.969Z,99906.25
2022-11-17T04:05:09.001Z,99904.69
2022-11-17T04:07:40.065Z,99892.94
2022-11-17T04:10:09.837Z,99902.88
2022-11-17T04:12:55.211Z,99907.47
2022-11-17T04:15:42.554Z,99904.47
2022-11-17T04:18:11.620Z,99898.72
2022-11-17T04:20:39.523Z,99899.09
2022-11-17T04:23:08.527Z,99882.97
2022-11-17T04:25:54.509Z,99895.91
2022-11-17T04:28:38.064Z,99889.63
2022-11-17T04:31:09.599Z,99892.47
2022-11-17T04:33:38.645Z,99888.75
2022-11-17T04:36:07.618Z,99887.72
2022-11-17T04:38:35.933Z,99883.78
2022-11-17T04:41:23.861Z,99882.78
2022-11-17T04:43:52.195Z,99885.84
2022-11-17T04:46:22.597Z,99872.06
2022-11-17T04:48:50.446Z,99884.78
2022-11-17T04:51:18.315Z,99881.00
2022-11-17T04:53:48.769Z,99877.63
2022-11-17T04:56:16.756Z,99874.59
2022-11-17T04:58:44.743Z,99871.03
2022-11-17T05:01:17.378Z,99864.56
2022-11-17T05:03:47.927Z,99871.09
2022-11-17T05:06:17.132Z,99871.66
2022-11-17T05:08:45.530Z,99867.66
2022-11-17T05:11:31.991Z,99875.94
2022-11-17T05:14:00.482Z,99872.22
2022-11-17T05:16:45.955Z,99877.84
2022-11-17T05:19:16.987Z,99866.69
2022-11-17T05:21:44.863Z,99853.06
2022-11-17T05:24:14.208Z,99848.59
2022-11-17T05:26:43.010Z,99848.78
2022-11-17T05:29:14.785Z,99862.19
2022-11-17T05:31:43.135Z,99855.59
2022-11-17T05:34:13.253Z,99849.13
2022-11-17T05:36:43.045Z,99853.69
2022-11-17T05:39:11.234Z,99838.00
2022-11-17T05:41:39.148Z,99835.88
2022-11-17T05:44:07.128Z,99830.59
2022-11-17T05:46:35.199Z,99840.66
2022-11-17T05:49:04.532Z,99849.91
2022-11-17T05:51:33.098Z,99843.69
2022-11-17T05:54:02.438Z,99837.84
2022-11-17T05:56:36.977Z,99836.41
2022-11-17T05:59:14.380Z,99832.91
2022-11-17T06:01:45.378Z,99837.53
2022-11-17T06:04:15.741Z,99846.66
2022-11-17T06:06:43.650Z,99845.38
2022-11-17T06:09:13.155Z,99840.53
2022-11-17T06:11:40.984Z,99847.38
2022-11-17T06:14:08.934Z,99840.28
2022-11-17T06:16:41.401Z,99836.91
2022-11-17T06:19:13.279Z,99828.97
2022-11-17T06:22:09.935Z,99828.03
2022-11-17T06:24:30.863Z,99825.50
2022-11-17T06:26:59.883Z,99825.31
2022-11-17T06:29:30.005Z,99819.28
2022-11-17T06:31:58.504Z,99820.09
2022-11-17T06:34:26.698Z,99829.75
2022-11-17T06:36:54.546Z,99824.28
2022-11-17T06:39:22.425Z,99822.66
2022-11-17T06:41:51.666Z,99819.88
2022-11-17T06:44:19.563Z,99821.56
2022-11-17T06:46:49.208Z,99812.28
2022-11-17T06:49:17.462Z,99803.34
2022-11-17T06:51:45.773Z,99808.84
2022-11-17T06:54:15.004Z,99802.88
2022-11-17T06:56:43.615Z,99796.50
2022-11-17T06:59:12.815Z,99798.00
2022-11-17T07:01:40.684Z,99792.63
2022-11-17T07:04:08.909Z,99799.59
2022-11-17T07:06:37.429Z,99787.19
2022-11-17T07:09:05.306Z,99800.75
2022-11-17T07:11:35.304Z,99796.88
2022-11-17T07:14:03.918Z,99790.25
2022-11-17T07:16:34.000Z,99794.00
2022-11-17T07:19:03.627Z,99792.84
2022-11-17T07:21:31.995Z,99788.59
2022-11-17T07:24:00.066Z,99798.81
2022-11-17T07:26:28.852Z,99799.28
2022-11-17T07:28:56.690Z,99800.09
2022-11-17T07:31:24.536Z,99799.31
2022-11-17T07:33:54.457Z,99807.50
2022-11-17T07:36:22.460Z,99799.47
2022-11-17T07:38:50.319Z,99806.78
2022-11-17T07:41:18.248Z,99800.03
2022-11-17T07:43:46.184Z,99790.38
2022-11-17T07:46:15.233Z,99797.53
2022-11-17T07:48:43.899Z,99805.25
2022-11-17T07:51:14.121Z,99811.34
2022-11-17T07:53:42.047Z,99807.59
2022-11-17T07:56:11.564Z,99802.44
2022-11-17T07:58:40.068Z,99809.94
2022-11-17T08:01:08.680Z,99805.09
2022-11-17T08:03:36.692Z,99792.91
2022-11-17T08:06:05.045Z,99804.09
2022-11-17T08:08:35.064Z,99788.88
2022-11-17T08:11:04.603Z,99796.72
2022-11-17T08:13:32.479Z,99790.53
2022-11-17T08:16:00.437Z,99786.59
2022-11-17T08:18:28.584Z,99787.25
2022-11-17T08:21:02.317Z,99781.09
2022-11-17T08:23:30.151Z,99778.19
2022-11-17T08:25:59.500Z,99770.94
2022-11-17T08:28:27.349Z,99781.19
2022-11-17T08:30:55.764Z,99776.75
2022-11-17T08:33:23.668Z,99778.16
2022-11-17T08:35:51.570Z,99779.72
2022-11-17T08:38:19.488Z,99779.47
2022-11-17T08:40:47.707Z,99779.66
2022-11-17T08:43:16.992Z,99766.72
2022-11-17T08:45:44.920Z,99769.19
2022-11-17T08:48:12.748Z,99765.69
2022-11-17T08:50:40.759Z,99775.22
2022-11-17T08:53:13.904Z,99773.16
2022-11-17T08:55:41.975Z,99773.63
2022-11-17T08:58:09.969Z,99772.00
2022-11-17T09:00:40.027Z,99780.97
2022-11-17T09:03:08.299Z,99774.63
2022-11-17T09:05:38.175Z,99780.09
2022-11-17T09:08:37.989Z,99782.94
2022-11-17T09:10:54.241Z,99778.16
2022-11-17T09:13:22.104Z,99788.22
2022-11-17T09:15:51.363Z,99789.22
2022-11-17T09:18:19.290Z,99779.88
2022-11-17T09:20:47.151Z,99788.00
2022-11-17T09:23:15.104Z,99790.31
2022-11-17T09:25:43.005Z,99792.56
2022-11-17T09:28:10.873Z,99790.66
2022-11-17T09:30:38.808Z,99800.72
2022-11-17T09:33:08.037Z,99793.66
2022-11-17T09:35:35.898Z,99796.22
2022-11-17T09:38:03.827Z,99796.75
2022-11-17T09:40:37.526Z,99786.41
2022-11-17T09:43:08.035Z,99793.88
2022-11-17T09:45:38.696Z,99791.75
2022-11-17T09:48:39.605Z,99793.59
2022-11-17T09:51:03.625Z,99785.16
2022-11-17T09:53:38.519Z,99771.69
2022-11-17T09:56:08.867Z,99789.53
2022-11-17T09:58:45.196Z,99782.34
2022-11-17T10:01:14.727Z,99785.19
2022-11-17T10:03:46.155Z,99790.44
2022-11-17T10:06:17.262Z,99781.13
2022-11-17T10:08:49.650Z,99783.94
2022-11-17T10:11:33.893Z,99785.72
2022-11-17T10:14:11.838Z,99773.44
2022-11-17T10:16:41.401Z,99762.16
2022-11-17T10:19:16.559Z,99768.31
2022-11-17T10:21:44.665Z,99769.13
2022-11-17T10:24:12.553Z,99761.50
2022-11-17T10:26:48.324Z,99757.22
2022-11-17T10:29:23.179Z,99762.84
2022-11-17T10:31:51.172Z,99753.44
2022-11-17T10:34:40.209Z,99747.94
2022-11-17T10:37:25.483Z,99755.56
2022-11-17T10:40:08.169Z,99749.84
2022-11-17T10:42:36.026Z,99742.94
2022-11-17T10:45:04.040Z,99750.44
2022-11-17T10:47:40.546Z,99745.25
2022-11-17T10:50:24.636Z,99741.31
2022-11-17T10:52:53.734Z,99730.97
2022-11-17T10:55:25.728Z,99722.47
2022-11-17T10:57:56.479Z,99720.25
2022-11-17T11:00:26.311Z,99721.97
2022-11-17T11:03:08.893Z,99719.94
2022-11-17T11:05:38.962Z,99726.16
2022-11-17T11:08:19.484Z,99723.09
2022-11-17T11:10:48.522Z,99722.84
2022-11-17T11:13:21.473Z,99726.78
2022-11-17T11:15:49.373Z,99712.09
2022-11-17T11:18:19.631Z,99706.22
2022-11-17T11:20:57.262Z,99708.81
2022-11-17T11:23:35.964Z,99710.00
2022-11-17T11:26:13.125Z,99706.47
2022-11-17T11:28:54.652Z,99703.88
2022-11-17T11:31:27.788Z,99697.50
2022-11-17T11:34:03.824Z,99694.56
2022-11-17T11:36:37.784Z,99691.66
2022-11-17T11:39:08.738Z,99683.16
2022-11-17T11:41:50.490Z,99688.34
2022-11-17T11:44:30.156Z,99672.75
2022-11-17T11:47:01.799Z,99673.38
2022-11-17T11:49:34.042Z,99681.66
2022-11-17T11:52:05.813Z,99683.22
2022-11-17T11:54:40.338Z,99679.09
2022-11-17T11:57:11.012Z,99673.47
2022-11-17T11:59:48.078Z,99665.47
2022-11-17T12:02:26.211Z,99675.97
2022-11-17T12:05:01.477Z,99671.91
2022-11-17T12:07:36.549Z,99672.78
2022-11-17T12:10:06.651Z,99668.81
2022-11-17T12:12:37.645Z,99664.00
2022-11-17T12:15:30.385Z,99666.59
2022-11-17T12:18:03.972Z,99669.34
2022-11-17T12:20:54.604Z,99670.75
2022-11-17T12:23:54.380Z,99670.72
2022-11-17T12:26:24.646Z,99672.22
2022-11-17T12:29:24.516Z,99678.63
2022-11-17T12:31:53.904Z,99670.47
2022-11-17T12:34:27.528Z,99676.25
2022-11-17T12:37:21.640Z,99667.78
2022-11-17T12:40:04.781Z,99674.94
2022-11-17T12:42:33.096Z,99667.06
2022-11-17T12:45:12.229Z,99664.72
2022-11-17T12:47:42.032Z,99664.84
2022-11-17T12:50:33.944Z,99662.81
2022-11-17T12:53:35.458Z,99665.94
2022-11-17T12:56:33.248Z,99662.81
2022-11-17T12:59:11.573Z,99663.22
2022-11-17T13:01:46.718Z,99657.81
2022-11-17T13:04:16.730Z,99667.97
2022-11-17T13:07:00.914Z,99665.91
2022-11-17T13:09:31.081Z,99654.91
2022-11-17T13:12:05.392Z,99660.44
2022-11-17T13:14:33.897Z,99659.91
2022-11-17T13:17:02.680Z,99672.41
2022-11-17T13:19:36.315Z,99665.84
2022-11-17T13:22:06.587Z,99658.34
2022-11-17T13:24:36.347Z,99666.94
2022-11-17T13:27:08.373Z,99659.41
2022-11-17T13:29:36.441Z,99658.13
2022-11-17T13:32:18.558Z,99647.50
2022-11-17T13:34:49.310Z,99638.06
2022-11-17T13:37:19.023Z,99641.69
2022-11-17T13:40:19.755Z,99655.34
2022-11-17T13:42:49.558Z,99635.00
2022-11-17T13:45:17.697Z,99642.09
2022-11-17T13:47:47.857Z,99647.03
2022-11-17T13:50:34.274Z,99641.25
2022-11-17T13:53:18.187Z,99645.28
2022-11-17T13:55:46.910Z,99639.88
2022-11-17T13:58:31.107Z,99652.53
2022-11-17T14:01:00.294Z,99642.06
2022-11-17T14:03:34.319Z,99639.69
2022-11-17T14:06:02.604Z,99647.44
2022-11-17T14:08:33.852Z,99644.84
2022-11-17T14:11:16.463Z,99645.78
2022-11-17T14:13:47.124Z,99634.69
2022-11-17T14:16:24.993Z,99631.75
2022-11-17T14:19:03.912Z,99639.13
2022-11-17T14:21:33.717Z,99626.41
2022-11-17T14:24:08.104Z,99629.41
2022-11-17T14:26:37.844Z,99636.34
2022-11-17T14:29:07.453Z,99633.13
2022-11-17T14:31:35.360Z,99629.28
2022-11-17T14:34:03.187Z,99637.03
2022-11-17T14:36:32.849Z,99635.66
2022-11-17T14:39:02.607Z,99640.03
2022-11-17T14:44:50.641Z,99643.94
2022-11-17T14:47:19.070Z,99643.97
2022-11-17T14:49:47.026Z,99639.50
2022-11-17T14:52:14.938Z,99645.16
2022-11-17T14:54:43.075Z,99641.91
2022-11-17T14:57:11.016Z,99631.59
2022-11-17T14:59:39.272Z,99634.91
2022-11-17T15:02:09.926Z,99640.28
2022-11-17T15:04:56.493Z,99634.56
2022-11-17T15:07:25.205Z,99635.94
2022-11-17T15:09:53.304Z,99639.19
2022-11-17T15:12:21.384Z,99648.19
2022-11-17T15:14:49.393Z,99641.41
2022-11-17T15:17:18.868Z,99635.97
2022-11-17T15:19:46.775Z,99641.13
2022-11-17T15:22:14.978Z,99641.53
2022-11-17T15:24:43.186Z,99642.25
2022-11-17T15:27:11.397Z,99642.34
2022-11-17T15:29:39.559Z,99642.50
2022-11-17T15:32:08.136Z,99651.22
2022-11-17T15:34:37.422Z,99643.56
2022-11-17T15:37:05.535Z,99641.53
2022-11-17T15:39:33.653Z,99651.50
2022-11-17T15:42:01.599Z,99643.00
2022-11-17T15:44:30.105Z,99644.50
2022-11-17T15:46:58.007Z,99640.06
2022-11-17T15:49:28.751Z,99640.63
2022-11-17T15:51:57.984Z,99645.50
2022-11-17T15:54:26.134Z,99641.25
2022-11-17T15:56:54.031Z,99640.97
2022-11-17T15:59:22.551Z,99642.50
2022-11-17T16:01:50.696Z,99640.69
2022-11-17T16:04:18.632Z,99645.03
2022-11-17T16:06:47.296Z,99639.44
2022-11-17T16:09:17.373Z,99630.66
2022-11-17T16:11:45.705Z,99641.97
2022-11-17T16:14:14.783Z,99652.88
2022-11-17T16:16:43.712Z,99645.09
2022-11-17T16:19:11.834Z,99639.53
2022-11-17T16:21:39.771Z,99636.19
2022-11-17T16:24:08.092Z,99632.94
2022-11-17T16:26:37.763Z,99640.06
2022-11-17T16:29:07.412Z,99639.91
2022-11-17T16:31:37.348Z,99633.53
2022-11-17T16:34:06.588Z,99634.31
2022-11-17T16:36:37.011Z,99632.88
2022-11-17T16:39:06.493Z,99631.56
2022-11-17T16:41:35.383Z,99633.38
2022-11-17T16:44:09.031Z,99631.97
2022-11-17T16:46:37.348Z,99634.56
2022-11-17T16:49:07.844Z,99635.16
2022-11-17T16:51:35.944Z,99632.59
2022-11-17T16:54:05.284Z,99631.00
2022-11-17T16:56:33.903Z,99628.34
2022-11-17T16:59:02.210Z,99631.78
2022-11-17T17:01:33.014Z,99631.88
2022-11-17T17:04:02.296Z,99632.66
2022-11-17T17:06:30.837Z,99631.78
2022-11-17T17:09:00.460Z,99634.28
2022-11-17T17:11:31.406Z,99640.19
2022-11-17T17:14:00.254Z,99647.06
2022-11-17T17:16:29.010Z,99645.88
2022-11-17T17:19:00.189Z,99638.38
2022-11-17T17:21:30.003Z,99631.28
2022-11-17T17:23:58.204Z,99641.22
2022-11-17T17:26:27.354Z,99642.13
2022-11-17T17:28:56.858Z,99637.22
2022-11-17T17:31:25.895Z,99631.56
2022-11-17T17:33:54.076Z,99634.38
2022-11-17T17:36:24.549Z,99631.75
2022-11-17T17:38:56.504Z,99635.56
2022-11-17T17:41:26.040Z,99635.94
2022-11-17T17:43:58.132Z,99638.38
2022-11-17T17:46:26.376Z,99648.81
2022-11-17T17:48:54.245Z,99639.31
2022-11-17T17:51:24.975Z,99637.38
2022-11-17T17:53:53.195Z,99640.03
2022-11-17T17:56:22.218Z,99639.84
2022-11-17T17:58:50.767Z,99644.28
2022-11-17T18:01:20.217Z,99652.25
2022-11-17T18:03:50.135Z,99651.16
2022-11-17T18:06:19.905Z,99647.34
2022-11-17T18:08:49.678Z,99643.22
2022-11-17T18:11:18.986Z,99637.84
2022-11-17T18:13:48.464Z,99640.47
2022-11-17T18:16:18.027Z,99643.78
2022-11-17T18:18:46.260Z,99642.59
2022-11-17T18:21:15.985Z,99641.94
2022-11-17T18:23:44.210Z,99647.06
2022-11-17T18:26:15.680Z,99648.06
2022-11-17T18:28:44.833Z,99643.22
2022-11-17T18:31:12.758Z,99650.78
2022-11-17T18:33:40.673Z,99650.66
2022-11-17T18:36:10.252Z,99652.28
2022-11-17T18:38:38.641Z,99656.09
2022-11-17T18:41:07.729Z,99664.25
2022-11-17T18:43:37.582Z,99657.91
2022-11-17T18:46:06.725Z,99650.66
2022-11-17T18:48:35.116Z,99660.56
2022-11-17T18:51:20.364Z,99658.03
2022-11-17T18:53:49.084Z,99655.22
2022-11-17T18:56:18.784Z,99651.22
2022-11-17T18:58:48.080Z,99657.53
2022-11-17T19:01:18.029Z,99657.91
2022-11-17T19:03:47.244Z,99665.66
2022-11-17T19:06:16.461Z,99659.88
2022-11-17T19:08:44.701Z,99658.38
2022-11-17T19:11:12.789Z,99658.44
2022-11-17T19:13:42.078Z,99654.81
2022-11-17T19:16:13.044Z,99651.16
2022-11-17T19:18:41.502Z,99650.00
2022-11-17T19:21:11.295Z,99656.03
2022-11-17T19:23:41.766Z,99663.66
2022-11-17T19:26:11.133Z,99657.34
2022-11-17T19:28:39.611Z,99654.00
2022-11-17T19:31:09.023Z,99650.22
2022-11-17T19:33:39.813Z,99663.66
2022-11-17T19:36:09.825Z,99660.22
2022-11-17T19:38:38.575Z,99666.38
2022-11-17T19:41:08.102Z,99670.16
2022-11-17T19:43:41.700Z,99672.66
2022-11-17T19:46:13.580Z,99663.13
2022-11-17T19:48:43.502Z,99667.75
2022-11-17T19:51:16.587Z,99666.66
2022-11-17T19:53:44.658Z,99661.19
2022-11-17T19:56:12.577Z,99670.09
2022-11-17T19:58:41.515Z,99667.06
2022-11-17T20:01:11.702Z,99668.47
2022-11-17T20:03:40.315Z,99678.53
2022-11-17T20:06:10.323Z,99676.50
2022-11-17T20:08:38.682Z,99686.47
2022-11-17T20:11:08.438Z,99681.47
2022-11-17T20:13:36.996Z,99689.50
2022-11-17T20:16:11.726Z,99675.28
2022-11-17T20:18:40.265Z,99688.38
2022-11-17T20:21:10.379Z,99684.53
2022-11-17T20:23:39.125Z,99691.13
2022-11-17T20:26:08.497Z,99690.56
2022-11-17T20:28:37.364Z,99684.91
2022-11-17T20:31:09.787Z,99689.53
2022-11-17T20:33:37.970Z,99691.97
2022-11-17T20:36:06.664Z,99690.97
2022-11-17T20:38:36.568Z,99690.66
2022-11-17T20:41:05.563Z,99698.09
2022-11-17T20:43:34.694Z,99700.59
2022-11-17T20:46:03.528Z,99698.13
2022-11-17T20:48:33.975Z,99693.31
2022-11-17T20:51:03.981Z,99689.41
2022-11-17T20:53:32.237Z,99688.16
2022-11-17T20:56:02.582Z,99689.56
2022-11-17T20:58:30.858Z,99685.75
2022-11-17T21:00:58.846Z,99695.88
2022-11-17T21:03:27.630Z,99684.28
2022-11-17T21:05:58.745Z,99696.53
2022-11-17T21:08:28.460Z,99693.75
2022-11-17T21:10:56.949Z,99687.22
2022-11-17T21:13:26.757Z,99700.22
2022-11-17T21:16:06.492Z,99702.53
2022-11-17T21:18:34.830Z,99700.78
2022-11-17T21:21:04.664Z,99706.41
2022-11-17T21:23:32.725Z,99698.56
2022-11-17T21:26:04.531Z,99703.84
2022-11-17T21:28:33.876Z,99704.88
2022-11-17T21:31:07.618Z,99712.91
2022-11-17T21:33:35.837Z,99709.94
2022-11-17T21:36:04.029Z,99707.16
2022-11-17T21:38:31.904Z,99715.72
2022-11-17T21:41:02.966Z,99708.28
2022-11-17T21:43:30.986Z,99706.50
2022-11-17T21:46:03.555Z,99704.66
2022-11-17T21:48:31.472Z,99715.13
2022-11-17T21:50:59.696Z,99712.84
2022-11-17T21:53:27.648Z,99715.56
2022-11-17T21:56:01.262Z,99728.56
2022-11-17T21:58:29.205Z,99712.06
2022-11-17T22:00:57.422Z,99717.34
2022-11-17T22:03:27.492Z,99720.72
2022-11-17T22:06:00.930Z,99719.44
2022-11-17T22:08:30.001Z,99723.16
2022-11-17T22:10:57.889Z,99728.69
2022-11-17T22:13:25.704Z,99724.00
2022-11-17T22:15:53.881Z,99718.50
2022-11-17T22:18:21.739Z,99721.78
2022-11-17T22:20:52.887Z,99725.97
2022-11-17T22:23:20.689Z,99718.94
2022-11-17T22:25:54.299Z,99719.78
2022-11-17T22:28:22.385Z,99719.31
2022-11-17T22:30:50.588Z,99723.75
2022-11-17T22:33:18.617Z,99722.78
2022-11-17T22:35:46.607Z,99737.63
2022-11-17T22:38:16.285Z,99735.13
2022-11-17T22:40:44.341Z,99737.44
2022-11-17T22:43:15.425Z,99729.00
2022-11-17T22:45:43.857Z,99753.41
2022-11-17T22:48:11.674Z,99740.41
2022-11-17T22:50:39.572Z,99748.34
2022-11-17T22:53:07.622Z,99750.69
2022-11-17T22:55:37.468Z,99744.56
2022-11-17T22:58:05.308Z,99749.50
2022-11-17T23:00:33.171Z,99746.19
2022-11-17T23:03:01.107Z,99744.66
2022-11-17T23:05:29.005Z,99745.88
2022-11-17T23:07:56.851Z,99744.66
2022-11-17T23:10:24.779Z,99740.06
2022-11-17T23:12:54.537Z,99746.06
2022-11-17T23:15:22.661Z,99754.72
2022-11-17T23:17:50.516Z,99751.09
2022-11-17T23:20:18.523Z,99754.06
2022-11-17T23:22:46.401Z,99750.38
2022-11-17T23:25:14.293Z,99750.81
2022-11-17T23:27:42.167Z,99742.09
2022-11-17T23:30:12.959Z,99737.53
2022-11-17T23:32:40.871Z,99733.94
2022-11-17T23:35:09.800Z,99749.47
2022-11-17T23:37:37.666Z,99741.03
2022-11-17T23:40:06.396Z,99763.56
2022-11-17T23:42:42.836Z,99750.63
2022-11-17T23:45:14.363Z,99758.84
2022-11-17T23:47:42.272Z,99769.25
2022-11-17T23:50:10.396Z,99772.88
2022-11-17T23:52:38.247Z,99774.16
2022-11-17T23:55:06.819Z,99775.53
2022-11-17T23:57:34.949Z,99770.53
